sensor_id;sensor_type;location;lat;lon;timestamp;temperature;humidity
11239;DHT22;5677;48.488;13.436;2023-03-14T00:01:30;14.80;43.80
11239;DHT22;5677;48.488;13.436;2023-03-14T00:03:57;14.80;43.80
11239;DHT22;5677;48.488;13.436;2023-03-14T00:06:25;14.80;43.80
11239;DHT22;5677;48.488;13.436;2023-03-14T00:08:52;14.70;43.80
11239;DHT22;5677;48.488;13.436;2023-03-14T00:11:20;14.70;43.80
11239;DHT22;5677;48.488;13.436;2023-03-14T00:13:47;14.70;43.80
11239;DHT22;5677;48.488;13.436;2023-03-14T00:16:16;14.70;43.70
11239;DHT22;5677;48.488;13.436;2023-03-14T00:18:42;14.70;43.70
11239;DHT22;5677;48.488;13.436;2023-03-14T00:21:11;14.70;43.70
11239;DHT22;5677;48.488;13.436;2023-03-14T00:23:39;14.70;43.70
11239;DHT22;5677;48.488;13.436;2023-03-14T00:26:08;14.70;43.70
11239;DHT22;5677;48.488;13.436;2023-03-14T00:28:35;14.70;43.70
11239;DHT22;5677;48.488;13.436;2023-03-14T00:31:03;14.70;43.70
11239;DHT22;5677;48.488;13.436;2023-03-14T00:33:31;14.70;43.70
11239;DHT22;5677;48.488;13.436;2023-03-14T00:36:00;14.70;43.70
11239;DHT22;5677;48.488;13.436;2023-03-14T00:38:27;14.70;43.70
11239;DHT22;5677;48.488;13.436;2023-03-14T00:40:54;14.70;43.70
11239;DHT22;5677;48.488;13.436;2023-03-14T00:43:21;14.70;43.70
11239;DHT22;5677;48.488;13.436;2023-03-14T00:45:48;14.70;43.60
11239;DHT22;5677;48.488;13.436;2023-03-14T00:48:14;14.70;43.60
11239;DHT22;5677;48.488;13.436;2023-03-14T00:50:43;14.70;43.70
11239;DHT22;5677;48.488;13.436;2023-03-14T00:53:09;14.70;43.60
11239;DHT22;5677;48.488;13.436;2023-03-14T00:55:37;14.70;43.70
11239;DHT22;5677;48.488;13.436;2023-03-14T00:58:03;14.70;43.70
11239;DHT22;5677;48.488;13.436;2023-03-14T01:00:30;14.70;43.60
11239;DHT22;5677;48.488;13.436;2023-03-14T01:02:57;14.70;43.60
11239;DHT22;5677;48.488;13.436;2023-03-14T01:05:24;14.70;43.60
11239;DHT22;5677;48.488;13.436;2023-03-14T01:07:52;14.70;43.60
11239;DHT22;5677;48.488;13.436;2023-03-14T01:10:19;14.70;43.60
11239;DHT22;5677;48.488;13.436;2023-03-14T01:12:46;14.70;43.60
11239;DHT22;5677;48.488;13.436;2023-03-14T01:15:13;14.70;43.60
11239;DHT22;5677;48.488;13.436;2023-03-14T01:17:39;14.70;43.60
11239;DHT22;5677;48.488;13.436;2023-03-14T01:20:08;14.70;43.60
11239;DHT22;5677;48.488;13.436;2023-03-14T01:22:35;14.70;43.60
11239;DHT22;5677;48.488;13.436;2023-03-14T01:25:06;14.70;43.60
11239;DHT22;5677;48.488;13.436;2023-03-14T01:27:33;14.70;43.60
11239;DHT22;5677;48.488;13.436;2023-03-14T01:30:00;14.70;43.60
11239;DHT22;5677;48.488;13.436;2023-03-14T01:32:27;14.70;43.60
11239;DHT22;5677;48.488;13.436;2023-03-14T01:34:54;14.70;43.50
11239;DHT22;5677;48.488;13.436;2023-03-14T01:37:21;14.60;43.40
11239;DHT22;5677;48.488;13.436;2023-03-14T01:39:48;14.70;43.60
11239;DHT22;5677;48.488;13.436;2023-03-14T01:42:16;14.60;43.40
11239;DHT22;5677;48.488;13.436;2023-03-14T01:44:48;14.60;43.50
11239;DHT22;5677;48.488;13.436;2023-03-14T01:47:15;14.70;43.50
11239;DHT22;5677;48.488;13.436;2023-03-14T01:49:42;14.60;43.40
11239;DHT22;5677;48.488;13.436;2023-03-14T01:52:12;14.60;43.40
11239;DHT22;5677;48.488;13.436;2023-03-14T01:54:42;14.60;43.40
11239;DHT22;5677;48.488;13.436;2023-03-14T01:57:13;14.60;43.40
11239;DHT22;5677;48.488;13.436;2023-03-14T01:59:48;14.60;43.40
11239;DHT22;5677;48.488;13.436;2023-03-14T02:02:17;14.60;43.40
11239;DHT22;5677;48.488;13.436;2023-03-14T02:04:45;14.60;43.40
11239;DHT22;5677;48.488;13.436;2023-03-14T02:07:14;14.60;43.40
11239;DHT22;5677;48.488;13.436;2023-03-14T02:09:42;14.60;43.50
11239;DHT22;5677;48.488;13.436;2023-03-14T02:12:11;14.60;43.40
11239;DHT22;5677;48.488;13.436;2023-03-14T02:14:40;14.60;43.40
11239;DHT22;5677;48.488;13.436;2023-03-14T02:17:09;14.60;43.40
11239;DHT22;5677;48.488;13.436;2023-03-14T02:19:49;14.60;43.40
11239;DHT22;5677;48.488;13.436;2023-03-14T02:22:17;14.60;44.10
11239;DHT22;5677;48.488;13.436;2023-03-14T02:24:49;14.60;43.40
11239;DHT22;5677;48.488;13.436;2023-03-14T02:27:20;14.60;43.40
11239;DHT22;5677;48.488;13.436;2023-03-14T02:29:51;14.60;43.40
11239;DHT22;5677;48.488;13.436;2023-03-14T02:32:20;14.60;43.40
11239;DHT22;5677;48.488;13.436;2023-03-14T02:34:50;14.60;43.30
11239;DHT22;5677;48.488;13.436;2023-03-14T02:37:19;14.60;43.40
11239;DHT22;5677;48.488;13.436;2023-03-14T02:39:46;14.60;43.40
11239;DHT22;5677;48.488;13.436;2023-03-14T02:42:15;14.60;43.40
11239;DHT22;5677;48.488;13.436;2023-03-14T02:44:51;14.60;43.30
11239;DHT22;5677;48.488;13.436;2023-03-14T02:47:21;14.60;43.40
11239;DHT22;5677;48.488;13.436;2023-03-14T02:49:49;14.60;43.40
11239;DHT22;5677;48.488;13.436;2023-03-14T02:52:16;14.60;43.40
11239;DHT22;5677;48.488;13.436;2023-03-14T02:54:43;14.60;43.40
11239;DHT22;5677;48.488;13.436;2023-03-14T02:57:10;14.50;43.40
11239;DHT22;5677;48.488;13.436;2023-03-14T02:59:37;14.60;43.40
11239;DHT22;5677;48.488;13.436;2023-03-14T03:02:05;14.60;43.30
11239;DHT22;5677;48.488;13.436;2023-03-14T03:04:31;14.60;43.30
11239;DHT22;5677;48.488;13.436;2023-03-14T03:06:58;14.60;43.30
11239;DHT22;5677;48.488;13.436;2023-03-14T03:09:25;14.60;43.40
11239;DHT22;5677;48.488;13.436;2023-03-14T03:11:52;14.50;43.40
11239;DHT22;5677;48.488;13.436;2023-03-14T03:14:18;14.50;43.30
11239;DHT22;5677;48.488;13.436;2023-03-14T03:16:45;14.50;43.40
11239;DHT22;5677;48.488;13.436;2023-03-14T03:19:13;14.50;43.30
11239;DHT22;5677;48.488;13.436;2023-03-14T03:21:41;14.50;43.30
11239;DHT22;5677;48.488;13.436;2023-03-14T03:24:08;14.50;43.30
11239;DHT22;5677;48.488;13.436;2023-03-14T03:26:35;14.50;43.30
11239;DHT22;5677;48.488;13.436;2023-03-14T03:29:02;14.50;43.30
11239;DHT22;5677;48.488;13.436;2023-03-14T03:31:28;14.50;43.30
11239;DHT22;5677;48.488;13.436;2023-03-14T03:33:56;14.50;43.30
11239;DHT22;5677;48.488;13.436;2023-03-14T03:36:25;14.50;43.30
11239;DHT22;5677;48.488;13.436;2023-03-14T03:38:52;14.50;43.30
11239;DHT22;5677;48.488;13.436;2023-03-14T03:41:19;14.50;43.40
11239;DHT22;5677;48.488;13.436;2023-03-14T03:43:46;14.50;43.30
11239;DHT22;5677;48.488;13.436;2023-03-14T03:46:12;14.50;43.30
11239;DHT22;5677;48.488;13.436;2023-03-14T03:48:39;14.50;43.30
11239;DHT22;5677;48.488;13.436;2023-03-14T03:51:06;14.50;43.40
11239;DHT22;5677;48.488;13.436;2023-03-14T03:53:34;14.50;43.30
11239;DHT22;5677;48.488;13.436;2023-03-14T03:56:01;14.50;43.30
11239;DHT22;5677;48.488;13.436;2023-03-14T03:58:28;14.50;43.30
11239;DHT22;5677;48.488;13.436;2023-03-14T04:00:54;14.50;43.30
11239;DHT22;5677;48.488;13.436;2023-03-14T04:03:21;14.50;43.30
11239;DHT22;5677;48.488;13.436;2023-03-14T04:05:58;14.50;43.30
11239;DHT22;5677;48.488;13.436;2023-03-14T04:08:25;14.50;43.30
11239;DHT22;5677;48.488;13.436;2023-03-14T04:10:56;14.50;43.30
11239;DHT22;5677;48.488;13.436;2023-03-14T04:13:23;14.50;43.30
11239;DHT22;5677;48.488;13.436;2023-03-14T04:15:50;14.50;43.30
11239;DHT22;5677;48.488;13.436;2023-03-14T04:18:17;14.50;43.30
11239;DHT22;5677;48.488;13.436;2023-03-14T04:20:44;14.50;43.30
11239;DHT22;5677;48.488;13.436;2023-03-14T04:23:11;14.50;43.30
11239;DHT22;5677;48.488;13.436;2023-03-14T04:25:38;14.50;43.30
11239;DHT22;5677;48.488;13.436;2023-03-14T04:28:06;14.50;44.00
11239;DHT22;5677;48.488;13.436;2023-03-14T04:30:33;14.50;43.20
11239;DHT22;5677;48.488;13.436;2023-03-14T04:32:59;14.50;43.30
11239;DHT22;5677;48.488;13.436;2023-03-14T04:35:26;14.50;43.30
11239;DHT22;5677;48.488;13.436;2023-03-14T04:37:53;14.50;43.30
11239;DHT22;5677;48.488;13.436;2023-03-14T04:40:19;14.50;43.20
11239;DHT22;5677;48.488;13.436;2023-03-14T04:42:46;14.40;43.20
11239;DHT22;5677;48.488;13.436;2023-03-14T04:45:14;14.40;43.10
11239;DHT22;5677;48.488;13.436;2023-03-14T04:47:41;14.40;43.20
11239;DHT22;5677;48.488;13.436;2023-03-14T04:50:09;14.40;43.20
11239;DHT22;5677;48.488;13.436;2023-03-14T04:52:36;14.50;43.30
11239;DHT22;5677;48.488;13.436;2023-03-14T04:55:03;14.40;43.20
11239;DHT22;5677;48.488;13.436;2023-03-14T04:57:29;14.40;43.20
11239;DHT22;5677;48.488;13.436;2023-03-14T04:59:56;14.50;43.20
11239;DHT22;5677;48.488;13.436;2023-03-14T05:02:24;14.40;43.20
11239;DHT22;5677;48.488;13.436;2023-03-14T05:04:51;14.50;43.20
11239;DHT22;5677;48.488;13.436;2023-03-14T05:07:18;14.40;43.10
11239;DHT22;5677;48.488;13.436;2023-03-14T05:09:44;14.40;43.20
11239;DHT22;5677;48.488;13.436;2023-03-14T05:12:11;14.50;43.30
11239;DHT22;5677;48.488;13.436;2023-03-14T05:14:38;14.50;43.30
11239;DHT22;5677;48.488;13.436;2023-03-14T05:17:05;14.40;43.10
11239;DHT22;5677;48.488;13.436;2023-03-14T05:19:33;14.40;43.20
11239;DHT22;5677;48.488;13.436;2023-03-14T05:22:00;14.50;43.20
11239;DHT22;5677;48.488;13.436;2023-03-14T05:24:26;14.40;43.20
11239;DHT22;5677;48.488;13.436;2023-03-14T05:26:53;14.50;43.20
11239;DHT22;5677;48.488;13.436;2023-03-14T05:29:20;14.40;43.10
11239;DHT22;5677;48.488;13.436;2023-03-14T05:31:47;14.40;43.10
11239;DHT22;5677;48.488;13.436;2023-03-14T05:34:13;14.40;43.10
11239;DHT22;5677;48.488;13.436;2023-03-14T05:36:41;14.40;43.10
11239;DHT22;5677;48.488;13.436;2023-03-14T05:39:08;14.40;43.10
11239;DHT22;5677;48.488;13.436;2023-03-14T05:41:35;14.40;43.10
11239;DHT22;5677;48.488;13.436;2023-03-14T05:44:02;14.40;43.10
11239;DHT22;5677;48.488;13.436;2023-03-14T05:46:28;14.40;43.10
11239;DHT22;5677;48.488;13.436;2023-03-14T05:48:56;14.40;43.10
11239;DHT22;5677;48.488;13.436;2023-03-14T05:51:22;14.40;43.10
11239;DHT22;5677;48.488;13.436;2023-03-14T05:53:50;14.40;43.10
11239;DHT22;5677;48.488;13.436;2023-03-14T05:56:17;14.40;43.10
11239;DHT22;5677;48.488;13.436;2023-03-14T05:58:44;14.40;43.10
11239;DHT22;5677;48.488;13.436;2023-03-14T06:01:11;14.40;43.10
11239;DHT22;5677;48.488;13.436;2023-03-14T06:03:37;14.40;43.10
11239;DHT22;5677;48.488;13.436;2023-03-14T06:06:05;14.40;43.10
11239;DHT22;5677;48.488;13.436;2023-03-14T06:08:32;14.40;43.10
11239;DHT22;5677;48.488;13.436;2023-03-14T06:11:02;14.40;43.20
11239;DHT22;5677;48.488;13.436;2023-03-14T06:13:29;14.40;43.10
11239;DHT22;5677;48.488;13.436;2023-03-14T06:15:56;14.40;43.10
11239;DHT22;5677;48.488;13.436;2023-03-14T06:18:23;14.40;43.10
11239;DHT22;5677;48.488;13.436;2023-03-14T06:20:53;14.40;43.10
11239;DHT22;5677;48.488;13.436;2023-03-14T06:23:20;14.40;43.10
11239;DHT22;5677;48.488;13.436;2023-03-14T06:25:47;14.40;43.10
11239;DHT22;5677;48.488;13.436;2023-03-14T06:28:15;14.40;43.10
11239;DHT22;5677;48.488;13.436;2023-03-14T06:30:41;14.40;43.00
11239;DHT22;5677;48.488;13.436;2023-03-14T06:33:08;14.40;43.10
11239;DHT22;5677;48.488;13.436;2023-03-14T06:35:35;14.40;43.10
11239;DHT22;5677;48.488;13.436;2023-03-14T06:38:02;14.40;43.00
11239;DHT22;5677;48.488;13.436;2023-03-14T06:40:29;14.40;43.00
11239;DHT22;5677;48.488;13.436;2023-03-14T06:42:56;14.40;43.00
11239;DHT22;5677;48.488;13.436;2023-03-14T06:45:24;14.40;43.00
11239;DHT22;5677;48.488;13.436;2023-03-14T06:47:50;14.40;43.10
11239;DHT22;5677;48.488;13.436;2023-03-14T06:50:17;14.40;43.00
11239;DHT22;5677;48.488;13.436;2023-03-14T06:52:44;14.40;43.10
11239;DHT22;5677;48.488;13.436;2023-03-14T06:55:13;14.40;43.00
11239;DHT22;5677;48.488;13.436;2023-03-14T06:57:39;14.40;43.00
11239;DHT22;5677;48.488;13.436;2023-03-14T07:00:08;14.40;43.00
11239;DHT22;5677;48.488;13.436;2023-03-14T07:02:36;14.40;43.00
11239;DHT22;5677;48.488;13.436;2023-03-14T07:05:03;14.40;43.00
11239;DHT22;5677;48.488;13.436;2023-03-14T07:07:30;14.40;43.00
11239;DHT22;5677;48.488;13.436;2023-03-14T07:09:57;14.40;43.00
11239;DHT22;5677;48.488;13.436;2023-03-14T07:12:24;14.40;43.00
11239;DHT22;5677;48.488;13.436;2023-03-14T07:14:50;14.40;43.00
11239;DHT22;5677;48.488;13.436;2023-03-14T07:17:17;14.40;43.00
11239;DHT22;5677;48.488;13.436;2023-03-14T07:19:45;14.40;43.00
11239;DHT22;5677;48.488;13.436;2023-03-14T07:22:12;14.40;43.00
11239;DHT22;5677;48.488;13.436;2023-03-14T07:24:38;14.40;43.00
11239;DHT22;5677;48.488;13.436;2023-03-14T07:27:05;14.40;43.00
11239;DHT22;5677;48.488;13.436;2023-03-14T07:29:32;14.40;43.00
11239;DHT22;5677;48.488;13.436;2023-03-14T07:31:59;14.40;43.00
11239;DHT22;5677;48.488;13.436;2023-03-14T07:34:25;14.40;42.90
11239;DHT22;5677;48.488;13.436;2023-03-14T07:36:53;14.40;42.90
11239;DHT22;5677;48.488;13.436;2023-03-14T07:39:20;14.40;42.90
11239;DHT22;5677;48.488;13.436;2023-03-14T07:41:47;14.40;42.90
11239;DHT22;5677;48.488;13.436;2023-03-14T07:44:13;14.40;42.90
11239;DHT22;5677;48.488;13.436;2023-03-14T07:46:40;14.40;42.90
11239;DHT22;5677;48.488;13.436;2023-03-14T07:49:07;14.40;42.90
11239;DHT22;5677;48.488;13.436;2023-03-14T07:51:34;14.40;42.90
11239;DHT22;5677;48.488;13.436;2023-03-14T07:54:02;14.40;42.90
11239;DHT22;5677;48.488;13.436;2023-03-14T07:56:28;14.40;42.90
11239;DHT22;5677;48.488;13.436;2023-03-14T07:58:55;14.40;42.90
11239;DHT22;5677;48.488;13.436;2023-03-14T08:01:22;14.40;42.90
11239;DHT22;5677;48.488;13.436;2023-03-14T08:03:49;14.40;42.90
11239;DHT22;5677;48.488;13.436;2023-03-14T08:06:16;14.40;42.90
11239;DHT22;5677;48.488;13.436;2023-03-14T08:08:42;14.40;42.90
11239;DHT22;5677;48.488;13.436;2023-03-14T08:11:11;14.40;42.90
11239;DHT22;5677;48.488;13.436;2023-03-14T08:13:38;14.40;42.90
11239;DHT22;5677;48.488;13.436;2023-03-14T08:16:05;14.40;42.90
11239;DHT22;5677;48.488;13.436;2023-03-14T08:18:32;14.40;42.80
11239;DHT22;5677;48.488;13.436;2023-03-14T08:20:59;14.40;42.90
11239;DHT22;5677;48.488;13.436;2023-03-14T08:23:26;14.40;42.90
11239;DHT22;5677;48.488;13.436;2023-03-14T08:25:53;14.40;42.80
11239;DHT22;5677;48.488;13.436;2023-03-14T08:28:21;14.40;42.90
11239;DHT22;5677;48.488;13.436;2023-03-14T08:30:48;14.40;42.90
11239;DHT22;5677;48.488;13.436;2023-03-14T08:33:14;14.40;42.90
11239;DHT22;5677;48.488;13.436;2023-03-14T08:35:42;14.40;42.90
11239;DHT22;5677;48.488;13.436;2023-03-14T08:38:08;14.40;42.90
11239;DHT22;5677;48.488;13.436;2023-03-14T08:40:35;14.40;42.90
11239;DHT22;5677;48.488;13.436;2023-03-14T08:43:02;14.40;42.80
11239;DHT22;5677;48.488;13.436;2023-03-14T08:45:30;14.40;42.90
11239;DHT22;5677;48.488;13.436;2023-03-14T08:47:57;14.40;42.80
11239;DHT22;5677;48.488;13.436;2023-03-14T08:50:24;14.40;42.80
11239;DHT22;5677;48.488;13.436;2023-03-14T08:52:51;14.40;42.90
11239;DHT22;5677;48.488;13.436;2023-03-14T08:55:18;14.40;42.80
11239;DHT22;5677;48.488;13.436;2023-03-14T08:57:45;14.40;42.80
11239;DHT22;5677;48.488;13.436;2023-03-14T09:00:13;14.40;42.80
11239;DHT22;5677;48.488;13.436;2023-03-14T09:02:42;14.40;42.80
11239;DHT22;5677;48.488;13.436;2023-03-14T09:05:09;14.40;42.90
11239;DHT22;5677;48.488;13.436;2023-03-14T09:07:37;14.40;43.50
11239;DHT22;5677;48.488;13.436;2023-03-14T09:10:04;14.40;42.80
11239;DHT22;5677;48.488;13.436;2023-03-14T09:12:31;14.40;42.80
11239;DHT22;5677;48.488;13.436;2023-03-14T09:14:58;14.40;42.90
11239;DHT22;5677;48.488;13.436;2023-03-14T09:17:25;14.40;42.90
11239;DHT22;5677;48.488;13.436;2023-03-14T09:19:53;14.40;42.80
11239;DHT22;5677;48.488;13.436;2023-03-14T09:22:20;14.40;42.80
11239;DHT22;5677;48.488;13.436;2023-03-14T09:24:46;14.40;42.80
11239;DHT22;5677;48.488;13.436;2023-03-14T09:27:13;14.40;42.80
11239;DHT22;5677;48.488;13.436;2023-03-14T09:29:40;14.40;42.90
11239;DHT22;5677;48.488;13.436;2023-03-14T09:32:07;14.40;42.80
11239;DHT22;5677;48.488;13.436;2023-03-14T09:34:34;14.40;42.80
11239;DHT22;5677;48.488;13.436;2023-03-14T09:37:02;14.40;42.80
11239;DHT22;5677;48.488;13.436;2023-03-14T09:39:28;14.40;42.80
11239;DHT22;5677;48.488;13.436;2023-03-14T09:41:56;14.40;42.80
11239;DHT22;5677;48.488;13.436;2023-03-14T09:44:28;14.40;42.80
11239;DHT22;5677;48.488;13.436;2023-03-14T09:46:58;14.40;42.80
11239;DHT22;5677;48.488;13.436;2023-03-14T09:49:31;14.40;42.80
11239;DHT22;5677;48.488;13.436;2023-03-14T09:52:00;14.40;42.80
11239;DHT22;5677;48.488;13.436;2023-03-14T09:54:35;14.40;42.80
11239;DHT22;5677;48.488;13.436;2023-03-14T09:57:03;14.40;42.80
11239;DHT22;5677;48.488;13.436;2023-03-14T09:59:30;14.40;42.80
11239;DHT22;5677;48.488;13.436;2023-03-14T10:02:01;14.40;42.80
11239;DHT22;5677;48.488;13.436;2023-03-14T10:04:28;14.40;42.80
11239;DHT22;5677;48.488;13.436;2023-03-14T10:06:57;14.40;42.80
11239;DHT22;5677;48.488;13.436;2023-03-14T10:09:24;14.40;42.80
11239;DHT22;5677;48.488;13.436;2023-03-14T10:11:54;14.40;42.80
11239;DHT22;5677;48.488;13.436;2023-03-14T10:14:32;14.40;42.80
11239;DHT22;5677;48.488;13.436;2023-03-14T10:17:08;14.40;42.80
11239;DHT22;5677;48.488;13.436;2023-03-14T10:19:35;14.40;42.70
11239;DHT22;5677;48.488;13.436;2023-03-14T10:22:03;14.40;42.70
11239;DHT22;5677;48.488;13.436;2023-03-14T10:24:32;14.40;42.70
11239;DHT22;5677;48.488;13.436;2023-03-14T10:27:02;14.40;42.70
11239;DHT22;5677;48.488;13.436;2023-03-14T10:29:30;14.40;42.70
11239;DHT22;5677;48.488;13.436;2023-03-14T10:31:59;14.40;42.70
11239;DHT22;5677;48.488;13.436;2023-03-14T10:34:29;14.40;42.70
11239;DHT22;5677;48.488;13.436;2023-03-14T10:36:58;14.40;42.70
11239;DHT22;5677;48.488;13.436;2023-03-14T10:39:29;14.40;42.70
11239;DHT22;5677;48.488;13.436;2023-03-14T10:42:05;14.40;43.40
11239;DHT22;5677;48.488;13.436;2023-03-14T10:44:34;14.40;42.70
11239;DHT22;5677;48.488;13.436;2023-03-14T10:47:03;14.40;42.70
11239;DHT22;5677;48.488;13.436;2023-03-14T10:49:31;14.40;42.70
11239;DHT22;5677;48.488;13.436;2023-03-14T10:52:02;14.50;42.80
11239;DHT22;5677;48.488;13.436;2023-03-14T10:54:38;14.40;42.70
11239;DHT22;5677;48.488;13.436;2023-03-14T10:57:07;14.40;42.70
11239;DHT22;5677;48.488;13.436;2023-03-14T10:59:35;14.40;42.70
11239;DHT22;5677;48.488;13.436;2023-03-14T11:02:10;14.40;42.70
11239;DHT22;5677;48.488;13.436;2023-03-14T11:04:52;14.50;42.80
11239;DHT22;5677;48.488;13.436;2023-03-14T11:07:24;14.40;42.70
11239;DHT22;5677;48.488;13.436;2023-03-14T11:09:56;14.50;42.80
11239;DHT22;5677;48.488;13.436;2023-03-14T11:12:41;14.40;42.70
11239;DHT22;5677;48.488;13.436;2023-03-14T11:15:17;14.40;42.70
11239;DHT22;5677;48.488;13.436;2023-03-14T11:17:53;14.50;42.80
11239;DHT22;5677;48.488;13.436;2023-03-14T11:20:32;14.50;42.70
11239;DHT22;5677;48.488;13.436;2023-03-14T11:23:07;14.50;42.70
11239;DHT22;5677;48.488;13.436;2023-03-14T11:25:39;14.50;42.80
11239;DHT22;5677;48.488;13.436;2023-03-14T11:28:16;14.50;42.80
11239;DHT22;5677;48.488;13.436;2023-03-14T11:30:49;14.50;42.70
11239;DHT22;5677;48.488;13.436;2023-03-14T11:33:18;14.50;42.80
11239;DHT22;5677;48.488;13.436;2023-03-14T11:35:55;14.50;42.70
11239;DHT22;5677;48.488;13.436;2023-03-14T11:38:29;14.40;42.70
11239;DHT22;5677;48.488;13.436;2023-03-14T11:40:58;14.40;42.60
11239;DHT22;5677;48.488;13.436;2023-03-14T11:43:29;14.40;42.70
11239;DHT22;5677;48.488;13.436;2023-03-14T11:46:01;14.50;42.80
11239;DHT22;5677;48.488;13.436;2023-03-14T11:48:36;14.40;42.70
11239;DHT22;5677;48.488;13.436;2023-03-14T11:51:09;14.50;42.80
11239;DHT22;5677;48.488;13.436;2023-03-14T11:53:49;14.50;42.80
11239;DHT22;5677;48.488;13.436;2023-03-14T11:56:23;14.40;42.70
11239;DHT22;5677;48.488;13.436;2023-03-14T11:58:57;14.50;42.80
11239;DHT22;5677;48.488;13.436;2023-03-14T12:01:31;14.40;42.70
11239;DHT22;5677;48.488;13.436;2023-03-14T12:04:05;14.40;42.70
11239;DHT22;5677;48.488;13.436;2023-03-14T12:06:38;14.40;42.70
11239;DHT22;5677;48.488;13.436;2023-03-14T12:09:08;14.40;42.70
11239;DHT22;5677;48.488;13.436;2023-03-14T12:11:40;14.50;42.80
11239;DHT22;5677;48.488;13.436;2023-03-14T12:14:22;14.50;42.80
11239;DHT22;5677;48.488;13.436;2023-03-14T12:16:55;14.40;42.80
11239;DHT22;5677;48.488;13.436;2023-03-14T12:19:35;14.40;42.70
11239;DHT22;5677;48.488;13.436;2023-03-14T12:22:12;14.40;42.70
11239;DHT22;5677;48.488;13.436;2023-03-14T12:24:47;14.40;42.70
11239;DHT22;5677;48.488;13.436;2023-03-14T12:27:42;14.40;42.70
11239;DHT22;5677;48.488;13.436;2023-03-14T12:30:26;14.50;42.80
11239;DHT22;5677;48.488;13.436;2023-03-14T12:33:20;14.50;42.80
11239;DHT22;5677;48.488;13.436;2023-03-14T12:35:49;14.40;42.70
11239;DHT22;5677;48.488;13.436;2023-03-14T12:38:23;14.50;42.80
11239;DHT22;5677;48.488;13.436;2023-03-14T12:40:58;14.40;42.70
11239;DHT22;5677;48.488;13.436;2023-03-14T12:43:29;14.40;42.60
11239;DHT22;5677;48.488;13.436;2023-03-14T12:46:21;14.50;42.80
11239;DHT22;5677;48.488;13.436;2023-03-14T12:48:49;14.40;42.70
11239;DHT22;5677;48.488;13.436;2023-03-14T12:51:18;14.40;42.70
11239;DHT22;5677;48.488;13.436;2023-03-14T12:54:04;14.50;42.80
11239;DHT22;5677;48.488;13.436;2023-03-14T12:56:49;14.40;42.60
11239;DHT22;5677;48.488;13.436;2023-03-14T12:59:30;14.50;42.70
11239;DHT22;5677;48.488;13.436;2023-03-14T13:02:10;14.50;42.70
11239;DHT22;5677;48.488;13.436;2023-03-14T13:04:44;14.50;42.70
11239;DHT22;5677;48.488;13.436;2023-03-14T13:07:13;14.50;42.70
11239;DHT22;5677;48.488;13.436;2023-03-14T13:09:55;14.50;42.70
11239;DHT22;5677;48.488;13.436;2023-03-14T13:12:29;14.50;42.70
11239;DHT22;5677;48.488;13.436;2023-03-14T13:14:59;14.40;42.70
11239;DHT22;5677;48.488;13.436;2023-03-14T13:17:31;14.50;42.80
11239;DHT22;5677;48.488;13.436;2023-03-14T13:20:03;14.40;42.70
11239;DHT22;5677;48.488;13.436;2023-03-14T13:22:34;14.50;42.70
11239;DHT22;5677;48.488;13.436;2023-03-14T13:25:03;14.50;42.80
11239;DHT22;5677;48.488;13.436;2023-03-14T13:27:33;14.50;42.70
11239;DHT22;5677;48.488;13.436;2023-03-14T13:30:11;14.50;42.70
11239;DHT22;5677;48.488;13.436;2023-03-14T13:32:42;14.50;42.70
11239;DHT22;5677;48.488;13.436;2023-03-14T13:35:16;14.50;42.70
11239;DHT22;5677;48.488;13.436;2023-03-14T13:37:43;14.50;42.70
11239;DHT22;5677;48.488;13.436;2023-03-14T13:40:19;14.40;42.60
11239;DHT22;5677;48.488;13.436;2023-03-14T13:42:46;14.50;42.70
11239;DHT22;5677;48.488;13.436;2023-03-14T13:45:14;14.50;42.70
11239;DHT22;5677;48.488;13.436;2023-03-14T13:47:42;14.50;42.70
11239;DHT22;5677;48.488;13.436;2023-03-14T13:50:17;14.50;42.70
11239;DHT22;5677;48.488;13.436;2023-03-14T13:52:44;14.50;42.60
11239;DHT22;5677;48.488;13.436;2023-03-14T13:55:16;14.50;42.60
11239;DHT22;5677;48.488;13.436;2023-03-14T13:57:45;14.50;42.60
11239;DHT22;5677;48.488;13.436;2023-03-14T14:00:21;14.50;42.60
11239;DHT22;5677;48.488;13.436;2023-03-14T14:02:50;14.50;42.50
11239;DHT22;5677;48.488;13.436;2023-03-14T14:05:17;14.50;42.50
11239;DHT22;5677;48.488;13.436;2023-03-14T14:07:44;14.60;42.50
11239;DHT22;5677;48.488;13.436;2023-03-14T14:10:12;14.60;42.40
11239;DHT22;5677;48.488;13.436;2023-03-14T14:12:42;14.60;42.50
11239;DHT22;5677;48.488;13.436;2023-03-14T14:15:14;14.60;42.50
11239;DHT22;5677;48.488;13.436;2023-03-14T14:17:46;14.60;42.50
11239;DHT22;5677;48.488;13.436;2023-03-14T14:20:23;14.50;42.50
11239;DHT22;5677;48.488;13.436;2023-03-14T14:22:50;14.50;42.50
11239;DHT22;5677;48.488;13.436;2023-03-14T14:25:18;14.50;42.50
11239;DHT22;5677;48.488;13.436;2023-03-14T14:27:48;14.50;42.50
11239;DHT22;5677;48.488;13.436;2023-03-14T14:30:28;14.50;42.60
11239;DHT22;5677;48.488;13.436;2023-03-14T14:33:11;14.50;42.60
11239;DHT22;5677;48.488;13.436;2023-03-14T14:35:40;14.50;42.60
11239;DHT22;5677;48.488;13.436;2023-03-14T14:38:12;14.50;42.60
11239;DHT22;5677;48.488;13.436;2023-03-14T14:40:46;14.50;42.60
11239;DHT22;5677;48.488;13.436;2023-03-14T14:43:17;14.50;42.70
11239;DHT22;5677;48.488;13.436;2023-03-14T14:45:46;14.50;42.70
11239;DHT22;5677;48.488;13.436;2023-03-14T14:48:14;14.50;42.70
11239;DHT22;5677;48.488;13.436;2023-03-14T14:51:00;14.50;42.70
11239;DHT22;5677;48.488;13.436;2023-03-14T14:53:30;14.50;42.70
11239;DHT22;5677;48.488;13.436;2023-03-14T14:55:58;14.50;42.70
11239;DHT22;5677;48.488;13.436;2023-03-14T14:58:27;14.50;42.70
11239;DHT22;5677;48.488;13.436;2023-03-14T15:00:56;14.50;42.70
11239;DHT22;5677;48.488;13.436;2023-03-14T15:03:26;14.50;42.70
11239;DHT22;5677;48.488;13.436;2023-03-14T15:05:55;14.50;42.70
11239;DHT22;5677;48.488;13.436;2023-03-14T15:08:24;14.40;42.60
11239;DHT22;5677;48.488;13.436;2023-03-14T15:10:51;14.50;42.70
11239;DHT22;5677;48.488;13.436;2023-03-14T15:13:18;14.50;42.70
11239;DHT22;5677;48.488;13.436;2023-03-14T15:15:44;14.40;42.60
11239;DHT22;5677;48.488;13.436;2023-03-14T15:18:14;14.50;42.70
11239;DHT22;5677;48.488;13.436;2023-03-14T15:20:41;14.50;42.70
11239;DHT22;5677;48.488;13.436;2023-03-14T15:23:11;14.50;42.70
11239;DHT22;5677;48.488;13.436;2023-03-14T15:25:39;14.50;42.70
11239;DHT22;5677;48.488;13.436;2023-03-14T15:28:14;14.50;42.70
11239;DHT22;5677;48.488;13.436;2023-03-14T15:30:41;14.50;42.70
11239;DHT22;5677;48.488;13.436;2023-03-14T15:33:08;14.50;42.70
11239;DHT22;5677;48.488;13.436;2023-03-14T15:35:35;14.40;42.70
11239;DHT22;5677;48.488;13.436;2023-03-14T15:38:02;14.50;42.70
11239;DHT22;5677;48.488;13.436;2023-03-14T15:40:31;14.50;42.70
11239;DHT22;5677;48.488;13.436;2023-03-14T15:42:57;14.50;42.70